HLA weather

Lanseria Airport
Johannesburg, Gauteng, South Africa

Public forecast

Using degrees Celsius for public forecast. Weather courtesy of forecast.io.

Current aviation weather report (METAR) for Lanseria Airport

Retrieved 2020/08/08 12:00 UTC (5 minutes ago):

FALA 081200Z 33013KT 290V010 CAVOK 17/05 Q1029 NOSIG

Aviation forecast (TAF) for Lanseria Airport

Retrieved 2020/08/08 12:00 UTC (5 minutes ago):

TAF FALA 081000Z 0812/0912 33010KT CAVOK TX22/0912Z TN04/0904Z BECMG 0816/0818 VRB03KT PROB30 TEMPO 0903/0905 5000 BR NSC BECMG 0907/0909 31012KT